createdAt,value
2023-02-26T00:00:07.506Z,53.06
2023-02-26T00:00:27.481Z,53.36
2023-02-26T00:01:01.454Z,53.39
2023-02-26T00:01:17.702Z,53.51
2023-02-26T00:01:31.730Z,53.38
2023-02-26T00:01:44.868Z,53.53
2023-02-26T00:02:07.750Z,53.61
2023-02-26T00:02:58.211Z,53.42
2023-02-26T00:03:15.869Z,53.38
2023-02-26T00:03:28.997Z,53.03
2023-02-26T00:03:42.443Z,53.52
2023-02-26T00:03:57.217Z,53.40
2023-02-26T00:04:12.351Z,53.41
2023-02-26T00:04:25.596Z,53.04
2023-02-26T00:04:38.896Z,53.26
2023-02-26T00:04:55.012Z,53.22
2023-02-26T00:05:14.840Z,53.35
2023-02-26T00:05:33.864Z,53.19
2023-02-26T00:05:47.116Z,53.34
2023-02-26T00:06:01.670Z,53.35
2023-02-26T00:06:14.869Z,53.32
2023-02-26T00:06:31.348Z,53.20
2023-02-26T00:06:53.529Z,53.20
2023-02-26T00:07:07.854Z,53.14
2023-02-26T00:07:24.123Z,53.17
2023-02-26T00:07:41.836Z,53.37
2023-02-26T00:08:15.255Z,53.31
2023-02-26T00:08:37.388Z,53.43
2023-02-26T00:08:53.520Z,53.40
2023-02-26T00:09:20.858Z,53.16
2023-02-26T00:09:33.971Z,53.48
2023-02-26T00:09:50.370Z,53.30
2023-02-26T00:10:10.484Z,53.46
2023-02-26T00:10:32.150Z,53.75
2023-02-26T00:10:48.875Z,53.66
2023-02-26T00:11:02.687Z,53.55
2023-02-26T00:11:17.353Z,53.62
2023-02-26T00:11:33.947Z,53.94
2023-02-26T00:11:47.204Z,53.86
2023-02-26T00:12:00.511Z,53.95
2023-02-26T00:12:13.518Z,53.69
2023-02-26T00:12:27.027Z,53.78
2023-02-26T00:12:40.839Z,53.96
2023-02-26T00:12:54.221Z,53.91
2023-02-26T00:13:09.002Z,53.87
2023-02-26T00:13:22.547Z,53.88
2023-02-26T00:13:39.081Z,53.71
2023-02-26T00:13:54.627Z,53.56
2023-02-26T00:14:10.359Z,53.59
2023-02-26T00:14:23.813Z,53.70
2023-02-26T00:14:45.104Z,53.93
2023-02-26T00:14:58.752Z,53.92
2023-02-26T00:15:17.769Z,53.81
2023-02-26T00:15:31.768Z,54.05
2023-02-26T00:15:44.968Z,53.76
2023-02-26T00:16:00.169Z,53.78
2023-02-26T00:16:28.840Z,53.92
2023-02-26T00:16:42.467Z,53.45
2023-02-26T00:17:16.993Z,53.39
2023-02-26T00:17:43.188Z,53.80
2023-02-26T00:18:02.814Z,53.85
2023-02-26T00:18:16.287Z,53.80
2023-02-26T00:18:29.614Z,53.63
2023-02-26T00:18:42.889Z,53.79
2023-02-26T00:18:56.930Z,53.90
2023-02-26T00:19:10.732Z,53.92
2023-02-26T00:19:23.910Z,53.99
2023-02-26T00:19:37.093Z,53.66
2023-02-26T00:19:50.379Z,53.52
2023-02-26T00:20:04.343Z,53.45
2023-02-26T00:20:18.040Z,53.87
2023-02-26T00:20:31.298Z,53.83
2023-02-26T00:20:44.750Z,53.63
2023-02-26T00:20:58.202Z,53.66
2023-02-26T00:21:19.162Z,53.54
2023-02-26T00:21:33.407Z,53.67
2023-02-26T00:21:46.864Z,53.52
2023-02-26T00:22:00.668Z,53.37
2023-02-26T00:22:13.916Z,53.30
2023-02-26T00:22:27.277Z,53.48
2023-02-26T00:22:40.910Z,53.23
2023-02-26T00:22:54.399Z,53.36
2023-02-26T00:23:09.276Z,53.45
2023-02-26T00:23:23.925Z,53.48
2023-02-26T00:23:37.895Z,53.63
2023-02-26T00:23:51.427Z,53.38
2023-02-26T00:24:06.841Z,53.66
2023-02-26T00:24:20.108Z,53.83
2023-02-26T00:24:33.808Z,53.73
2023-02-26T00:24:46.880Z,53.57
2023-02-26T00:25:00.081Z,53.50
2023-02-26T00:25:13.223Z,53.39
2023-02-26T00:25:26.339Z,53.50
2023-02-26T00:25:39.404Z,53.44
2023-02-26T00:25:52.399Z,53.54
2023-02-26T00:26:05.667Z,53.62
2023-02-26T00:26:18.804Z,53.75
2023-02-26T00:26:32.286Z,53.69
2023-02-26T00:26:45.900Z,53.88
2023-02-26T00:26:59.134Z,53.96
2023-02-26T00:27:12.403Z,53.91
2023-02-26T00:27:25.410Z,53.77
2023-02-26T00:27:38.641Z,53.71
2023-02-26T00:27:52.249Z,53.69
2023-02-26T00:28:05.466Z,53.79
2023-02-26T00:28:19.069Z,53.70
2023-02-26T00:28:32.229Z,53.29
2023-02-26T00:28:45.559Z,53.76
2023-02-26T00:28:59.133Z,53.62
2023-02-26T00:29:13.620Z,53.68
2023-02-26T00:29:26.924Z,53.83
2023-02-26T00:29:40.111Z,53.83
2023-02-26T00:29:53.555Z,53.85
2023-02-26T00:30:07.874Z,53.51
2023-02-26T00:30:21.347Z,53.50
2023-02-26T00:30:34.931Z,53.78
2023-02-26T00:30:48.366Z,53.51
2023-02-26T00:31:01.554Z,53.65
2023-02-26T00:31:17.850Z,53.58
2023-02-26T00:31:33.581Z,53.73
2023-02-26T00:31:47.146Z,53.70
2023-02-26T00:32:00.860Z,53.60
2023-02-26T00:32:14.445Z,53.66
2023-02-26T00:32:28.179Z,53.66
2023-02-26T00:32:42.069Z,53.50
2023-02-26T00:32:55.420Z,53.56
2023-02-26T00:33:08.735Z,53.60
2023-02-26T00:33:22.060Z,53.45
2023-02-26T00:33:35.428Z,53.54
2023-02-26T00:33:48.619Z,53.62
2023-02-26T00:34:01.987Z,53.89
2023-02-26T00:34:15.954Z,53.79
2023-02-26T00:34:29.092Z,53.79
2023-02-26T00:34:42.808Z,53.95
